Time;durP1;ratioP1;P1;durP2;ratioP2;P2;SDS_P1;SDS_P2;PMS_P1;PMS_P2;Temp;Humidity;BMP_temperature;BMP_pressure;BME280_temperature;BME280_humidity;BME280_pressure;Samples;Min_cycle;Max_cycle;Signal;HPM_P1;HPM_P2
2021/11/28 00:01:50;;;;;;;18.33;6.63;;;;;;;1.90;85.63;99191.66;5040509;28;20033;-70
2021/11/28 00:04:15;;;;;;;15.98;6.50;;;;;;;2.02;84.84;99187.97;5037063;28;20056;-70
2021/11/28 00:06:52;;;;;;;12.90;5.88;;;;;;;1.95;85.10;99186.94;5039104;28;20048;-70
2021/11/28 00:09:41;;;;;;;20.05;6.63;;;;;;;1.98;85.63;99186.66;5028236;28;20400;-70
2021/11/28 00:12:26;;;;;;;15.55;6.70;;;;;;;1.94;85.57;99192.97;5033748;28;21408;-70
2021/11/28 00:14:56;;;;;;;14.30;6.50;;;;;;;1.93;85.57;99189.63;5030793;28;20037;-70
2021/11/28 00:17:22;;;;;;;17.77;6.93;;;;;;;1.93;85.33;99189.63;5044865;28;20044;-70
2021/11/28 00:19:48;;;;;;;12.77;6.20;;;;;;;1.91;85.53;99191.50;5031089;28;20382;-70
2021/11/28 00:22:14;;;;;;;13.10;5.97;;;;;;;1.85;85.23;99194.63;5036216;28;20017;-70
2021/11/28 00:24:40;;;;;;;13.50;6.60;;;;;;;1.80;86.02;99190.88;5031327;28;20476;-70
2021/11/28 00:27:06;;;;;;;15.40;6.55;;;;;;;1.70;86.07;99188.34;5037986;28;20082;-70
2021/11/28 00:29:34;;;;;;;15.25;6.40;;;;;;;1.67;86.49;99199.63;5031048;28;20037;-70
2021/11/28 00:31:59;;;;;;;23.33;6.90;;;;;;;1.66;85.95;99204.91;5032908;28;20034;-70
2021/11/28 00:34:25;;;;;;;13.30;6.63;;;;;;;1.65;86.05;99200.72;5032852;28;20137;-70
2021/11/28 00:36:51;;;;;;;15.38;7.20;;;;;;;1.57;86.22;99201.41;5039123;28;20021;-70
2021/11/28 00:39:17;;;;;;;18.02;7.45;;;;;;;1.49;87.06;99196.19;5032419;28;20542;-70
2021/11/28 00:41:42;;;;;;;14.70;7.40;;;;;;;1.42;86.93;99203.56;5014488;28;20512;-70
2021/11/28 00:44:08;;;;;;;21.20;7.97;;;;;;;1.38;87.24;99202.25;5038469;28;20056;-70
2021/11/28 00:46:33;;;;;;;14.02;6.93;;;;;;;1.34;87.48;99211.13;5030330;28;20026;-70
2021/11/28 00:49:03;;;;;;;19.95;6.93;;;;;;;1.38;87.34;99212.47;5029978;28;20494;-70
2021/11/28 00:54:00;;;;;;;24.77;7.18;;;;;;;1.41;86.66;99222.38;5027860;28;20057;-70
2021/11/28 00:56:26;;;;;;;14.65;7.82;;;;;;;1.33;87.21;99215.41;5027047;28;20145;-70
2021/11/28 00:58:52;;;;;;;19.38;7.50;;;;;;;1.42;87.00;99207.91;5011391;28;20022;-70
2021/11/28 01:01:18;;;;;;;16.27;7.78;;;;;;;1.32;87.44;99206.16;5004466;28;20025;-70
2021/11/28 01:03:46;;;;;;;18.85;7.38;;;;;;;1.25;87.69;99212.72;5029459;28;20132;-70
2021/11/28 01:06:12;;;;;;;16.27;7.35;;;;;;;1.23;88.07;99219.72;5011279;28;20041;-71
2021/11/28 01:08:37;;;;;;;15.23;7.70;;;;;;;1.30;88.28;99220.81;5027965;28;20048;-70
2021/11/28 01:11:03;;;;;;;19.08;7.78;;;;;;;1.28;87.81;99221.84;5027936;28;20026;-70
2021/11/28 01:13:28;;;;;;;22.13;8.85;;;;;;;1.20;87.85;99214.06;5028262;28;20061;-70
2021/11/28 01:15:54;;;;;;;15.05;6.88;;;;;;;1.13;88.06;99221.44;5026813;28;20026;-70
2021/11/28 01:18:19;;;;;;;16.85;7.00;;;;;;;1.13;88.00;99226.56;5027555;28;20401;-70
2021/11/28 01:20:45;;;;;;;19.85;7.82;;;;;;;1.07;88.28;99225.34;5027572;28;20071;-70
2021/11/28 01:23:10;;;;;;;14.20;7.43;;;;;;;1.04;88.86;99225.63;5032344;28;20423;-70
2021/11/28 01:25:36;;;;;;;25.65;7.82;;;;;;;1.02;89.02;99227.50;5044350;28;20040;-70
2021/11/28 01:28:02;;;;;;;19.00;8.00;;;;;;;1.01;89.24;99228.44;5028677;28;20099;-70
2021/11/28 01:30:28;;;;;;;16.92;7.95;;;;;;;1.00;89.21;99231.13;5036046;28;20051;-70
2021/11/28 01:32:54;;;;;;;16.35;7.80;;;;;;;0.99;89.20;99232.06;5029271;28;20091;-70
2021/11/28 01:35:20;;;;;;;14.57;7.30;;;;;;;0.96;89.04;99236.50;5033208;28;20216;-70
2021/11/28 01:37:46;;;;;;;13.40;6.93;;;;;;;0.95;89.25;99239.19;5033017;28;20401;-70
2021/11/28 01:40:15;;;;;;;21.30;7.80;;;;;;;0.92;88.86;99242.81;5034007;28;20171;-70
2021/11/28 01:42:50;;;;;;;13.50;7.32;;;;;;;0.87;88.56;99241.59;5031209;28;20107;-70
2021/11/28 01:45:22;;;;;;;12.85;6.63;;;;;;;0.81;88.79;99242.94;5014571;28;20403;-70
2021/11/28 01:47:48;;;;;;;12.20;6.40;;;;;;;0.77;88.70;99244.09;5029792;28;20571;-70
2021/11/28 01:50:19;;;;;;;14.05;7.53;;;;;;;0.74;88.95;99244.38;5032660;28;20091;-70
2021/11/28 01:52:45;;;;;;;22.15;7.38;;;;;;;0.72;89.19;99246.25;5028083;28;20352;-70
2021/11/28 01:55:15;;;;;;;11.80;6.20;;;;;;;0.71;88.91;99247.19;5025534;28;20427;-70
2021/11/28 01:57:41;;;;;;;14.68;7.13;;;;;;;0.68;88.87;99240.59;5025033;28;20067;-70
2021/11/28 02:00:14;;;;;;;14.15;7.07;;;;;;;0.66;88.88;99247.59;5032649;28;20559;-70
2021/11/28 02:02:46;;;;;;;10.27;6.63;;;;;;;0.60;88.43;99239.63;5028477;28;20053;-70
2021/11/28 02:05:16;;;;;;;13.55;6.00;;;;;;;0.56;88.42;99241.63;5026244;28;20049;-70
2021/11/28 02:07:43;;;;;;;16.13;7.47;;;;;;;0.54;88.56;99243.50;5009202;28;20144;-70
2021/11/28 02:10:11;;;;;;;16.92;7.00;;;;;;;0.51;88.43;99241.19;5029221;28;20123;-70
2021/11/28 02:12:37;;;;;;;12.70;6.43;;;;;;;0.46;88.81;99248.47;5012872;28;20449;-70
2021/11/28 02:15:06;;;;;;;19.45;6.80;;;;;;;0.44;88.76;99237.56;5015396;28;20408;-70
2021/11/28 02:17:32;;;;;;;15.48;6.88;;;;;;;0.41;88.95;99238.63;5020475;28;20036;-69
2021/11/28 02:19:58;;;;;;;14.13;6.75;;;;;;;0.38;88.48;99246.56;5031325;28;20029;-70
2021/11/28 02:22:24;;;;;;;14.05;6.38;;;;;;;0.34;88.53;99243.44;5033159;28;20419;-70
2021/11/28 02:24:49;;;;;;;15.35;6.97;;;;;;;0.32;88.70;99249.59;5041189;28;20491;-70
2021/11/28 02:27:16;;;;;;;11.77;6.45;;;;;;;0.28;88.39;99251.59;5024278;28;20028;-70
2021/11/28 02:29:43;;;;;;;14.75;6.82;;;;;;;0.24;88.28;99244.34;5032757;28;20112;-70
2021/11/28 02:32:11;;;;;;;12.30;6.15;;;;;;;0.17;88.18;99242.31;5036493;28;20049;-70
2021/11/28 02:34:37;;;;;;;15.02;7.10;;;;;;;0.10;88.44;99241.19;5032790;28;20075;-70
2021/11/28 02:37:04;;;;;;;12.60;6.20;;;;;;;0.01;87.98;99247.03;5033138;28;20041;-70
2021/11/28 02:39:34;;;;;;;15.93;6.93;;;;;;;-0.05;88.00;99245.00;5029731;28;20381;-70
2021/11/28 02:42:01;;;;;;;16.63;6.90;;;;;;;-0.07;88.03;99246.88;5027613;28;20574;-70
2021/11/28 02:44:29;;;;;;;12.27;7.32;;;;;;;-0.09;88.63;99243.63;5029602;28;20022;-70
2021/11/28 02:46:55;;;;;;;15.88;7.53;;;;;;;-0.11;88.48;99242.97;5033446;28;20025;-70
2021/11/28 02:49:20;;;;;;;16.52;7.75;;;;;;;-0.14;88.76;99249.09;5025280;28;20055;-70
2021/11/28 02:51:46;;;;;;;15.60;7.30;;;;;;;-0.19;88.65;99251.19;5031689;28;20637;-70
2021/11/28 02:54:12;;;;;;;14.93;7.15;;;;;;;-0.25;88.60;99246.59;5032325;28;20458;-70
2021/11/28 02:56:41;;;;;;;23.15;8.60;;;;;;;-0.30;88.62;99247.00;5009550;28;20037;-69
2021/11/28 02:59:07;;;;;;;15.85;7.28;;;;;;;-0.32;88.56;99248.88;5034674;28;20036;-70
2021/11/28 03:01:34;;;;;;;13.82;7.03;;;;;;;-0.35;88.80;99256.75;5013044;28;20038;-70
2021/11/28 03:04:18;;;;;;;14.20;7.25;;;;;;;-0.35;89.04;99256.75;5027617;28;20052;-70
2021/11/28 03:06:43;;;;;;;15.52;7.50;;;;;;;-0.37;89.06;99256.06;5016983;28;20032;-70
2021/11/28 03:09:09;;;;;;;16.48;7.72;;;;;;;-0.40;89.10;99251.19;5027403;28;20037;-70
2021/11/28 03:11:34;;;;;;;13.68;7.45;;;;;;;-0.44;89.16;99255.72;5028835;28;20072;-70
2021/11/28 03:14:00;;;;;;;15.30;8.00;;;;;;;-0.45;88.94;99255.88;5031451;28;20079;-70
2021/11/28 03:16:26;;;;;;;17.60;7.53;;;;;;;-0.47;89.15;99261.09;5030447;28;20030;-70
2021/11/28 03:18:54;;;;;;;13.35;6.80;;;;;;;-0.50;89.11;99252.88;5027750;28;20111;-70
2021/11/28 03:21:23;;;;;;;13.85;7.88;;;;;;;-0.54;88.77;99252.31;5037202;28;20058;-70
2021/11/28 03:23:52;;;;;;;17.33;7.68;;;;;;;-0.56;89.14;99258.47;5028613;28;20025;-69
2021/11/28 03:26:22;;;;;;;15.43;7.70;;;;;;;-0.61;89.39;99261.38;5042342;28;20036;-69
2021/11/28 03:28:50;;;;;;;14.18;7.15;;;;;;;-0.63;89.56;99263.22;5038440;28;20076;-70
2021/11/28 03:31:25;;;;;;;18.55;8.45;;;;;;;-0.66;89.15;99271.94;5036975;28;20562;-69
2021/11/28 03:34:11;;;;;;;13.20;7.15;;;;;;;-0.74;89.39;99271.69;5038787;28;20586;-69
2021/11/28 03:36:43;;;;;;;15.25;8.02;;;;;;;-0.77;89.53;99271.13;5041519;28;20029;-69
2021/11/28 03:39:13;;;;;;;14.60;7.47;;;;;;;-0.83;89.68;99278.34;5034049;28;20513;-69
2021/11/28 03:41:42;;;;;;;16.90;8.93;;;;;;;-0.84;89.87;99286.88;5036167;28;20055;-69
2021/11/28 03:44:08;;;;;;;16.65;7.72;;;;;;;-0.84;89.52;99291.19;5039779;28;20035;-69
2021/11/28 03:46:48;;;;;;;13.93;7.28;;;;;;;-0.88;89.74;99288.06;5032988;28;20124;-69
2021/11/28 03:49:14;;;;;;;17.98;7.50;;;;;;;-0.91;89.83;99292.59;5022123;28;20434;-70
2021/11/28 03:51:40;;;;;;;18.63;7.90;;;;;;;-0.94;89.65;99288.56;5029334;28;20029;-69
2021/11/28 03:54:08;;;;;;;12.70;7.20;;;;;;;-0.96;89.74;99290.41;5032271;28;20040;-69
2021/11/28 03:56:34;;;;;;;14.70;7.10;;;;;;;-0.99;89.99;99281.25;5034235;28;20083;-69
2021/11/28 03:59:00;;;;;;;15.27;7.03;;;;;;;-0.99;90.46;99281.25;5028117;28;20030;-69
2021/11/28 04:01:26;;;;;;;15.25;7.47;;;;;;;-1.01;89.75;99285.66;5013358;28;20021;-70
2021/11/28 04:03:51;;;;;;;17.50;7.25;;;;;;;-1.05;89.83;99288.56;5029025;28;20095;-69
2021/11/28 04:06:37;;;;;;;15.90;7.15;;;;;;;-1.11;90.25;99296.66;5029382;28;20028;-69
2021/11/28 04:09:03;;;;;;;20.55;7.68;;;;;;;-1.14;90.50;99295.16;5028620;28;20037;-69
2021/11/28 04:11:29;;;;;;;20.58;8.20;;;;;;;-1.17;90.74;99300.47;5028850;28;20029;-69
2021/11/28 04:13:54;;;;;;;19.63;8.55;;;;;;;-1.18;90.57;99298.88;5028823;28;20104;-69
2021/11/28 04:16:20;;;;;;;19.65;8.27;;;;;;;-1.21;90.96;99307.53;5010887;28;20022;-69
2021/11/28 04:18:45;;;;;;;16.50;7.68;;;;;;;-1.23;90.73;99308.59;5028957;28;20526;-69
2021/11/28 04:21:15;;;;;;;15.48;7.65;;;;;;;-1.27;90.99;99309.75;5018159;28;20445;-69
2021/11/28 04:23:40;;;;;;;12.65;7.15;;;;;;;-1.30;90.64;99309.97;5022675;28;20028;-69
2021/11/28 04:26:06;;;;;;;17.13;8.57;;;;;;;-1.33;91.23;99310.22;5020579;28;20439;-69
2021/11/28 04:28:32;;;;;;;14.88;7.25;;;;;;;-1.37;91.23;99320.63;5034135;28;20131;-68
2021/11/28 04:31:00;;;;;;;13.70;7.47;;;;;;;-1.38;91.25;99316.44;5030835;28;20431;-69
2021/11/28 04:33:27;;;;;;;23.20;9.02;;;;;;;-1.38;91.32;99320.72;5030597;28;20450;-69
2021/11/28 04:35:54;;;;;;;15.60;8.20;;;;;;;-1.38;91.64;99321.53;5049965;28;20061;-68
2021/11/28 04:38:19;;;;;;;19.13;8.65;;;;;;;-1.38;91.78;99329.16;5033635;28;20397;-69
2021/11/28 04:40:45;;;;;;;16.42;8.55;;;;;;;-1.38;91.71;99334.25;5041719;28;20033;-69
2021/11/28 04:43:13;;;;;;;18.42;8.68;;;;;;;-1.38;91.84;99333.44;5032150;28;20051;-69
2021/11/28 04:45:38;;;;;;;16.88;9.10;;;;;;;-1.39;92.41;99337.72;5013586;28;20036;-69
2021/11/28 04:48:06;;;;;;;16.55;9.20;;;;;;;-1.39;92.33;99331.84;5016393;28;20028;-69
2021/11/28 04:50:32;;;;;;;18.60;9.57;;;;;;;-1.39;92.71;99334.38;5033097;28;20051;-69
2021/11/28 04:52:58;;;;;;;22.80;9.93;;;;;;;-1.39;92.60;99337.72;5036923;28;20555;-69
2021/11/28 04:55:23;;;;;;;15.82;9.43;;;;;;;-1.37;92.90;99340.97;5009556;28;20028;-69
2021/11/28 04:57:49;;;;;;;19.67;9.85;;;;;;;-1.34;93.21;99344.19;5019818;28;20180;-69
2021/11/28 05:00:21;;;;;;;21.30;10.20;;;;;;;-1.32;93.45;99347.44;5028420;28;20052;-69
2021/11/28 05:02:56;;;;;;;18.83;9.75;;;;;;;-1.32;93.28;99345.69;5021832;28;20560;-69
2021/11/28 05:05:24;;;;;;;22.05;9.05;;;;;;;-1.30;93.84;99350.66;5028397;28;20040;-70
2021/11/28 05:07:50;;;;;;;21.10;10.32;;;;;;;-1.27;93.79;99348.69;5031446;28;20041;-70
2021/11/28 05:10:16;;;;;;;19.73;9.30;;;;;;;-1.25;94.17;99354.47;5027388;28;20029;-69
2021/11/28 05:12:55;;;;;;;18.90;10.57;;;;;;;-1.24;94.35;99350.22;5027102;28;20054;-69
2021/11/28 05:15:21;;;;;;;19.67;10.50;;;;;;;-1.19;94.45;99359.13;5026696;28;20040;-69
2021/11/28 05:18:06;;;;;;;22.70;10.35;;;;;;;-1.16;94.51;99352.19;5029637;28;20052;-69
2021/11/28 05:20:32;;;;;;;23.88;10.60;;;;;;;-1.13;94.74;99364.66;5018714;28;20029;-69
2021/11/28 05:22:59;;;;;;;22.90;11.38;;;;;;;-1.10;95.17;99357.59;5030182;28;20021;-69
2021/11/28 05:25:24;;;;;;;17.27;10.02;;;;;;;-1.06;95.21;99358.97;5033383;28;20102;-69
2021/11/28 05:27:51;;;;;;;19.85;10.40;;;;;;;-1.05;95.48;99358.06;5015714;28;20026;-69
2021/11/28 05:30:16;;;;;;;33.20;10.77;;;;;;;-1.02;95.29;99367.19;5018006;28;20037;-69
2021/11/28 05:33:01;;;;;;;20.63;9.60;;;;;;;-1.01;95.64;99368.84;5033719;28;20112;-69
2021/11/28 05:35:45;;;;;;;19.55;10.75;;;;;;;-1.00;95.52;99362.81;5033804;28;20049;-69
2021/11/28 05:38:37;;;;;;;23.83;11.02;;;;;;;-0.98;95.77;99360.94;5031602;28;20114;-69
2021/11/28 05:41:02;;;;;;;24.42;11.77;;;;;;;-0.95;96.35;99365.81;5031082;28;20424;-69
2021/11/28 05:43:28;;;;;;;20.05;10.68;;;;;;;-0.94;96.00;99371.69;5016187;28;20025;-69
2021/11/28 05:45:55;;;;;;;18.42;9.95;;;;;;;-0.92;96.20;99369.84;5023774;28;20033;-69
2021/11/28 05:48:52;;;;;;;25.27;11.38;;;;;;;-0.90;96.61;99368.03;5002866;28;20041;-69
2021/11/28 05:51:37;;;;;;;21.02;10.02;;;;;;;-0.88;96.86;99372.06;5009359;28;20029;-70
2021/11/28 05:54:03;;;;;;;25.60;10.82;;;;;;;-0.88;96.56;99369.50;5029039;28;20029;-69
2021/11/28 05:56:29;;;;;;;18.13;9.90;;;;;;;-0.85;96.57;99373.53;5026523;28;20464;-69
2021/11/28 05:58:56;;;;;;;35.38;11.55;;;;;;;-0.83;96.80;99382.72;5010114;28;20411;-69
2021/11/28 06:01:22;;;;;;;23.50;11.05;;;;;;;-0.79;96.68;99381.53;5026728;28;20436;-70
2021/11/28 06:03:47;;;;;;;18.58;9.73;;;;;;;-0.80;96.80;99379.09;5017305;28;20124;-69
2021/11/28 06:06:31;;;;;;;19.35;9.65;;;;;;;-0.78;96.82;99384.88;5026194;28;20422;-70
2021/11/28 06:09:08;;;;;;;20.10;11.13;;;;;;;-0.76;96.63;99377.94;5025619;28;20033;-69
2021/11/28 06:11:36;;;;;;;24.08;11.32;;;;;;;-0.75;96.67;99384.66;5025727;28;20124;-69
2021/11/28 06:14:02;;;;;;;23.15;10.57;;;;;;;-0.72;96.95;99388.69;5029990;28;20436;-69
2021/11/28 06:16:30;;;;;;;22.88;9.82;;;;;;;-0.71;96.85;99387.78;5035188;28;20412;-69
2021/11/28 06:19:31;;;;;;;24.50;10.75;;;;;;;-0.67;96.60;99381.53;4965751;28;20053;-69
2021/11/28 06:22:15;;;;;;;26.50;10.07;;;;;;;-0.68;96.76;99388.34;5018549;28;20415;-70
2021/11/28 06:24:47;;;;;;;21.83;10.50;;;;;;;-0.65;96.44;99382.22;5012483;28;20033;-69
2021/11/28 06:27:20;;;;;;;19.17;9.75;;;;;;;-0.67;96.61;99394.25;5018612;28;20380;-69
2021/11/28 06:29:49;;;;;;;18.55;9.70;;;;;;;-0.67;96.21;99386.63;5036387;28;20051;-69
2021/11/28 06:32:16;;;;;;;25.48;10.60;;;;;;;-0.65;96.47;99392.41;5038874;28;20128;-69
2021/11/28 06:34:43;;;;;;;21.90;10.10;;;;;;;-0.64;96.70;99392.28;5036160;28;20045;-70
2021/11/28 06:37:27;;;;;;;22.58;9.65;;;;;;;-0.61;97.25;99401.41;5040831;28;20130;-69
2021/11/28 06:40:12;;;;;;;22.02;10.75;;;;;;;-0.61;96.49;99398.88;5034200;28;20036;-69
2021/11/28 06:43:04;;;;;;;21.13;10.35;;;;;;;-0.61;97.12;99403.97;5025843;28;20155;-69
2021/11/28 06:45:31;;;;;;;22.92;10.00;;;;;;;-0.60;96.79;99408.13;5020665;28;20029;-70
2021/11/28 06:48:01;;;;;;;20.63;9.90;;;;;;;-0.57;96.54;99415.53;5026479;28;20041;-70
2021/11/28 06:50:27;;;;;;;17.30;9.70;;;;;;;-0.55;96.60;99415.41;5026974;28;20067;-70
2021/11/28 06:53:19;;;;;;;20.83;10.43;;;;;;;-0.53;96.53;99408.47;5012719;28;20056;-69
2021/11/28 06:55:47;;;;;;;20.65;10.93;;;;;;;-0.51;96.79;99406.59;5025972;28;20045;-70
2021/11/28 06:58:35;;;;;;;23.83;11.90;;;;;;;-0.51;96.65;99412.53;5022467;28;20446;-69
2021/11/28 07:01:03;;;;;;;24.00;11.68;;;;;;;-0.40;96.57;99416.75;5035543;28;20025;-69
2021/11/28 07:03:29;;;;;;;21.52;10.90;;;;;;;-0.47;96.28;99416.44;5020965;28;20365;-69
2021/11/28 07:06:14;;;;;;;22.40;11.68;;;;;;;-0.50;96.44;99419.22;5027099;28;20157;-69
2021/11/28 07:08:51;;;;;;;25.50;12.25;;;;;;;-0.47;96.71;99419.00;5027649;28;20033;-70
2021/11/28 07:11:16;;;;;;;22.50;11.07;;;;;;;-0.49;96.78;99423.41;5038000;28;20483;-69
2021/11/28 07:13:43;;;;;;;20.75;11.88;;;;;;;-0.47;96.76;99428.34;5039030;28;20060;-69
2021/11/28 07:16:11;;;;;;;34.80;16.45;;;;;;;-0.46;96.36;99425.69;5038003;28;20071;-70
2021/11/28 07:18:43;;;;;;;39.22;16.88;;;;;;;-0.45;96.87;99434.16;5034345;28;20056;-70
2021/11/28 07:21:09;;;;;;;33.92;15.57;;;;;;;-0.46;96.79;99435.06;5034856;28;20041;-70
2021/11/28 07:23:36;;;;;;;38.67;16.88;;;;;;;-0.44;96.85;99440.84;5015359;28;20029;-70
2021/11/28 07:26:03;;;;;;;34.83;15.60;;;;;;;-0.41;97.05;99440.63;5025052;28;20028;-70
2021/11/28 07:28:32;;;;;;;27.02;14.23;;;;;;;-0.42;97.01;99446.66;5014942;28;20396;-70
2021/11/28 07:30:57;;;;;;;27.58;13.85;;;;;;;-0.41;96.97;99446.53;5033486;28;20033;-70
2021/11/28 07:33:43;;;;;;;23.17;12.38;;;;;;;-0.40;97.66;99442.25;5038607;28;20041;-70
2021/11/28 07:36:31;;;;;;;25.02;12.20;;;;;;;-0.40;97.16;99443.06;5027246;28;20511;-70
2021/11/28 07:38:59;;;;;;;24.67;12.32;;;;;;;-0.37;97.09;99443.75;5039671;28;20043;-70
2021/11/28 07:41:24;;;;;;;24.77;12.55;;;;;;;-0.37;97.43;99436.13;5030916;28;20060;-70
2021/11/28 07:43:56;;;;;;;20.37;11.47;;;;;;;-0.37;97.31;99444.56;5033456;28;20024;-70
2021/11/28 07:46:45;;;;;;;24.85;12.32;;;;;;;-0.35;97.06;99447.00;5014452;28;20487;-70
2021/11/28 07:49:15;;;;;;;25.25;12.45;;;;;;;-0.34;96.93;99451.97;5030001;28;20267;-70
2021/11/28 07:51:41;;;;;;;24.60;12.40;;;;;;;-0.33;97.36;99453.56;5031236;28;20040;-70
2021/11/28 07:54:13;;;;;;;31.83;15.88;;;;;;;-0.33;97.11;99457.88;5011313;28;20065;-70
2021/11/28 07:56:44;;;;;;;28.70;14.32;;;;;;;-0.33;96.92;99456.13;5031314;28;20439;-70
2021/11/28 07:59:34;;;;;;;28.33;13.15;;;;;;;-0.31;97.28;99467.00;5034666;28;20064;-70
2021/11/28 08:02:02;;;;;;;22.50;12.30;;;;;;;-0.29;97.05;99467.69;5031910;28;20472;-70
2021/11/28 08:04:48;;;;;;;22.45;12.82;;;;;;;-0.29;96.73;99470.25;5034726;28;20064;-69
2021/11/28 08:07:33;;;;;;;25.42;12.18;;;;;;;-0.28;96.65;99474.41;5032405;28;20052;-70
2021/11/28 08:10:14;;;;;;;22.13;11.18;;;;;;;-0.23;96.96;99474.88;5036707;28;20400;-70
2021/11/28 08:12:39;;;;;;;23.75;11.98;;;;;;;-0.21;97.20;99473.03;5035174;28;20037;-70
2021/11/28 08:15:08;;;;;;;24.10;11.32;;;;;;;-0.19;96.79;99477.97;5017333;28;20136;-70
2021/11/28 08:17:38;;;;;;;21.02;11.13;;;;;;;-0.17;96.95;99477.88;5029500;28;20039;-70
2021/11/28 08:20:08;;;;;;;20.38;11.07;;;;;;;-0.15;97.10;99479.38;5037950;28;20071;-70
2021/11/28 08:22:33;;;;;;;21.27;12.07;;;;;;;-0.09;96.83;99480.66;5020895;28;20033;-70
2021/11/28 08:24:59;;;;;;;33.50;14.55;;;;;;;-0.03;97.20;99490.34;5037833;28;20036;-70
2021/11/28 08:27:25;;;;;;;25.35;12.80;;;;;;;0.01;97.26;99496.81;5020711;28;20088;-70
2021/11/28 08:29:52;;;;;;;24.70;12.70;;;;;;;0.02;97.16;99495.91;5044542;28;20398;-70
2021/11/28 08:32:43;;;;;;;25.55;13.80;;;;;;;0.04;97.37;99495.75;5025885;28;20413;-70
2021/11/28 08:35:29;;;;;;;21.65;12.02;;;;;;;0.02;97.37;99502.72;5036375;28;20565;-70
2021/11/28 08:37:55;;;;;;;25.65;12.90;;;;;;;0.02;97.27;99492.53;5023797;28;20040;-70
2021/11/28 08:40:21;;;;;;;20.77;11.75;;;;;;;0.04;97.37;99504.25;5029462;28;20072;-70
2021/11/28 08:42:47;;;;;;;30.75;14.65;;;;;;;0.09;97.47;99503.88;5040390;28;20057;-70
2021/11/28 08:45:12;;;;;;;26.50;14.25;;;;;;;0.10;97.90;99508.06;5028596;28;20033;-70
2021/11/28 08:47:40;;;;;;;28.83;14.68;;;;;;;0.12;97.83;99504.44;5019762;28;20279;-70
2021/11/28 08:50:08;;;;;;;28.63;15.40;;;;;;;0.16;97.67;99510.91;5035737;28;20060;-70
2021/11/28 08:52:33;;;;;;;34.58;15.60;;;;;;;0.19;97.80;99505.59;5033814;28;20044;-70
2021/11/28 08:54:59;;;;;;;34.25;17.50;;;;;;;0.24;98.09;99509.50;5038822;28;20337;-70
2021/11/28 08:57:24;;;;;;;35.75;16.67;;;;;;;0.28;98.00;99510.88;5038268;28;20450;-70
2021/11/28 08:59:50;;;;;;;32.50;16.85;;;;;;;0.35;97.64;99519.66;5040256;28;20041;-70
2021/11/28 09:02:17;;;;;;;24.80;13.70;;;;;;;0.41;97.96;99526.84;5036637;28;20040;-70
2021/11/28 09:04:44;;;;;;;30.60;14.77;;;;;;;0.42;97.81;99518.25;5019320;28;20039;-70
2021/11/28 09:07:10;;;;;;;29.05;15.13;;;;;;;0.46;97.86;99523.94;5030822;28;20459;-69
2021/11/28 09:09:35;;;;;;;34.22;16.58;;;;;;;0.54;97.95;99521.56;5027990;28;20284;-70
2021/11/28 09:12:03;;;;;;;38.72;17.58;;;;;;;0.62;98.10;99531.16;5032319;28;20172;-70
2021/11/28 09:14:28;;;;;;;34.17;18.27;;;;;;;0.70;97.91;99532.16;5028069;28;20025;-70
2021/11/28 09:16:54;;;;;;;34.17;17.13;;;;;;;0.77;97.69;99532.47;5028776;28;20481;-70
2021/11/28 09:19:29;;;;;;;35.13;17.73;;;;;;;0.78;97.58;99531.56;5028861;28;20025;-70
2021/11/28 09:21:55;;;;;;;35.00;18.00;;;;;;;0.77;97.63;99533.31;5026404;28;20037;-70
2021/11/28 09:24:35;;;;;;;36.72;18.95;;;;;;;0.86;97.54;99529.19;5027914;28;20045;-70
2021/11/28 09:27:10;;;;;;;30.92;17.00;;;;;;;0.91;97.35;99534.72;5024774;28;20107;-70
2021/11/28 09:29:40;;;;;;;33.00;17.65;;;;;;;0.96;97.87;99530.06;5027560;28;20460;-70
2021/11/28 09:32:08;;;;;;;30.25;16.80;;;;;;;1.07;97.71;99531.72;5031309;28;20099;-70
2021/11/28 09:34:33;;;;;;;39.83;16.25;;;;;;;1.17;97.84;99534.34;5027297;28;20492;-70
2021/11/28 09:36:59;;;;;;;37.35;19.08;;;;;;;1.28;97.64;99534.28;5028593;28;20041;-70
2021/11/28 09:39:25;;;;;;;29.98;15.50;;;;;;;1.29;97.40;99529.97;5034019;28;20118;-70
2021/11/28 09:42:00;;;;;;;28.55;16.15;;;;;;;1.36;97.70;99542.09;5033315;28;20033;-70
2021/11/28 09:44:28;;;;;;;33.20;17.73;;;;;;;1.39;97.24;99546.13;5026776;28;20115;-70
2021/11/28 09:46:54;;;;;;;35.92;18.15;;;;;;;1.49;97.08;99536.00;5030928;28;20026;-70
2021/11/28 09:49:24;;;;;;;33.92;17.58;;;;;;;1.53;96.70;99542.47;5032768;28;20519;-70
2021/11/28 09:51:51;;;;;;;35.97;16.98;;;;;;;1.57;96.84;99537.91;5030273;28;20021;-70
2021/11/28 09:54:18;;;;;;;35.28;17.98;;;;;;;1.67;96.11;99526.75;5026456;28;20033;-70
2021/11/28 09:56:44;;;;;;;30.73;16.02;;;;;;;1.67;95.79;99525.97;5025579;28;20033;-70
2021/11/28 09:59:10;;;;;;;38.55;18.85;;;;;;;1.80;95.75;99518.88;5027039;28;20534;-70
2021/11/28 10:01:39;;;;;;;41.92;21.38;;;;;;;1.86;95.53;99522.66;5026840;28;20044;-70
2021/11/28 10:04:05;;;;;;;38.35;20.65;;;;;;;1.87;95.10;99527.63;5032834;28;20029;-70
2021/11/28 10:06:31;;;;;;;39.92;21.15;;;;;;;1.98;94.88;99536.94;5029149;28;20032;-70
2021/11/28 10:08:59;;;;;;;40.85;21.50;;;;;;;2.03;94.18;99534.00;5028301;28;20041;-70
2021/11/28 10:11:40;;;;;;;42.78;22.90;;;;;;;2.08;94.17;99539.53;5029783;28;20040;-70
2021/11/28 10:14:10;;;;;;;38.72;20.58;;;;;;;2.12;93.89;99534.00;5028236;28;20044;-70
2021/11/28 10:16:37;;;;;;;36.65;18.38;;;;;;;2.21;93.91;99532.41;5026716;28;20034;-70
2021/11/28 10:19:03;;;;;;;38.88;19.83;;;;;;;2.24;93.55;99536.44;5010624;28;20163;-70
2021/11/28 10:21:29;;;;;;;37.13;19.02;;;;;;;2.22;93.14;99531.44;5027977;28;20116;-70
2021/11/28 10:24:11;;;;;;;35.20;20.20;;;;;;;2.24;93.19;99531.31;5028506;28;20039;-70
2021/11/28 10:27:08;;;;;;;36.35;19.20;;;;;;;2.35;93.42;99538.88;5027850;28;20480;-70
2021/11/28 10:29:36;;;;;;;39.83;19.90;;;;;;;2.56;93.06;99540.50;5012661;28;20029;-70
2021/11/28 10:32:05;;;;;;;38.40;20.33;;;;;;;2.62;92.41;99539.94;5019382;28;20045;-70
2021/11/28 10:34:36;;;;;;;43.20;21.92;;;;;;;2.57;92.31;99540.38;5040170;28;20033;-70
2021/11/28 10:37:19;;;;;;;41.70;21.45;;;;;;;2.66;91.99;99533.66;5038211;28;20033;-70
2021/11/28 10:39:54;;;;;;;40.75;22.58;;;;;;;2.73;91.49;99530.41;5039864;28;20033;-70
2021/11/28 10:42:22;;;;;;;41.22;21.65;;;;;;;2.61;90.90;99534.03;5034549;28;20040;-70
2021/11/28 10:45:13;;;;;;;38.78;20.15;;;;;;;2.63;91.71;99528.78;5043543;28;20079;-70
2021/11/28 10:47:42;;;;;;;48.05;22.83;;;;;;;2.56;91.92;99532.81;5022658;28;20306;-71
2021/11/28 10:50:15;;;;;;;43.78;22.45;;;;;;;2.58;91.83;99524.09;5039849;28;20041;-70
2021/11/28 10:52:44;;;;;;;37.95;21.23;;;;;;;2.53;91.90;99532.16;5041258;28;20036;-70
2021/11/28 10:55:31;;;;;;;46.72;22.50;;;;;;;2.52;92.05;99525.44;5037812;28;20071;-70
2021/11/28 10:58:14;;;;;;;44.28;21.75;;;;;;;2.77;91.73;99525.81;5036166;28;20079;-70
2021/11/28 11:00:45;;;;;;;44.45;22.42;;;;;;;2.73;91.07;99521.91;5039677;28;20036;-70
2021/11/28 11:03:32;;;;;;;45.40;23.20;;;;;;;3.11;90.18;99535.59;5037131;28;20111;-70
2021/11/28 11:06:18;;;;;;;45.15;23.13;;;;;;;3.06;90.42;99541.13;5030989;28;20094;-70
2021/11/28 11:08:44;;;;;;;52.83;24.88;;;;;;;2.96;90.65;99544.63;5044220;28;20033;-70
2021/11/28 11:11:13;;;;;;;49.00;24.35;;;;;;;2.88;89.73;99540.22;5036752;28;20204;-70
2021/11/28 11:13:55;;;;;;;47.10;23.55;;;;;;;2.76;89.76;99541.31;5045420;28;20368;-70
2021/11/28 11:16:40;;;;;;;49.47;23.85;;;;;;;2.67;90.12;99537.81;5032034;28;20400;-70
2021/11/28 11:19:27;;;;;;;50.15;22.88;;;;;;;2.58;90.27;99543.72;5022298;28;20479;-70
2021/11/28 11:22:03;;;;;;;49.55;23.13;;;;;;;2.53;91.03;99544.94;5033152;28;20135;-70
2021/11/28 11:24:29;;;;;;;52.80;25.48;;;;;;;2.59;90.97;99530.81;5039426;28;20025;-70
2021/11/28 11:27:14;;;;;;;52.50;23.58;;;;;;;2.64;91.34;99531.22;5040400;28;20028;-70
2021/11/28 11:29:47;;;;;;;47.42;23.05;;;;;;;2.68;91.01;99526.63;5034029;28;20053;-70
2021/11/28 11:32:13;;;;;;;51.80;24.20;;;;;;;3.05;91.18;99529.28;5036469;28;20029;-70
2021/11/28 11:34:40;;;;;;;46.05;24.05;;;;;;;3.10;90.50;99523.72;5039675;28;20032;-70
2021/11/28 11:37:13;;;;;;;49.85;23.63;;;;;;;3.22;89.59;99521.81;5039544;28;20071;-70
2021/11/28 11:39:41;;;;;;;49.45;22.95;;;;;;;3.27;89.09;99523.00;5042022;28;20024;-70
2021/11/28 11:42:07;;;;;;;44.65;22.65;;;;;;;3.31;88.87;99528.66;5033394;28;20503;-70